createdAt,value
2019-01-31T00:01:53.808Z,57.30
2019-01-31T00:04:40.513Z,58.20
2019-01-31T00:07:33.356Z,56.30
2019-01-31T00:10:23.237Z,58.30
2019-01-31T00:13:10.294Z,56.20
2019-01-31T00:15:57.221Z,54.70
2019-01-31T00:18:31.741Z,54.80
2019-01-31T00:21:12.553Z,54.70
2019-01-31T00:23:50.160Z,51.70
2019-01-31T00:26:28.023Z,54.60
2019-01-31T00:29:08.768Z,50.80
2019-01-31T00:31:43.487Z,52.10
2019-01-31T00:34:15.375Z,57.40
2019-01-31T00:36:47.225Z,53.10
2019-01-31T00:39:50.930Z,51.90
2019-01-31T00:42:31.756Z,52.10
2019-01-31T00:45:18.413Z,49.20
2019-01-31T00:47:59.296Z,49.30
2019-01-31T00:50:42.979Z,52.40
2019-01-31T00:53:48.628Z,49.20
2019-01-31T00:56:41.358Z,53.20
2019-01-31T00:59:16.172Z,48.90
2019-01-31T01:02:09.464Z,50.10
2019-01-31T01:05:02.404Z,50.10
2019-01-31T01:07:52.430Z,48.40
2019-01-31T01:10:26.933Z,48.00
2019-01-31T01:13:22.802Z,48.70
2019-01-31T01:16:02.768Z,47.60
2019-01-31T01:18:37.263Z,45.40
2019-01-31T01:21:23.918Z,41.70
2019-01-31T01:23:55.857Z,44.40
2019-01-31T01:26:39.711Z,41.20
2019-01-31T01:29:17.711Z,36.00
2019-01-31T01:32:01.598Z,36.00
2019-01-31T01:34:48.060Z,36.00
2019-01-31T01:37:31.997Z,38.90
2019-01-31T01:40:12.962Z,41.30
2019-01-31T01:43:08.808Z,42.40
2019-01-31T01:46:06.365Z,37.80
2019-01-31T01:48:47.238Z,38.70
2019-01-31T01:51:31.284Z,40.80
2019-01-31T01:54:22.248Z,34.80
2019-01-31T01:57:00.111Z,36.90
2019-01-31T01:59:46.621Z,36.70
2019-01-31T02:02:38.613Z,35.00
2019-01-31T02:05:33.551Z,36.00
2019-01-31T02:08:08.427Z,33.10
2019-01-31T02:11:00.000Z,27.20
2019-01-31T02:13:34.529Z,24.50
2019-01-31T02:16:15.329Z,22.40
2019-01-31T02:18:52.735Z,27.60
2019-01-31T02:21:42.633Z,26.70
2019-01-31T02:24:20.283Z,27.50
2019-01-31T02:26:54.949Z,32.30
2019-01-31T02:29:51.040Z,30.80
2019-01-31T02:32:25.853Z,26.50
2019-01-31T02:35:21.458Z,25.70
2019-01-31T02:38:11.609Z,26.20
2019-01-31T02:40:49.327Z,26.20
2019-01-31T02:43:29.444Z,25.20
2019-01-31T02:46:19.906Z,22.50
2019-01-31T02:48:51.810Z,19.30
2019-01-31T02:51:41.594Z,20.90
2019-01-31T02:54:16.324Z,23.10
2019-01-31T02:57:09.276Z,24.60
2019-01-31T02:59:53.003Z,19.30
2019-01-31T03:02:34.038Z,17.70
2019-01-31T03:05:16.268Z,16.80
2019-01-31T03:07:53.861Z,15.80
2019-01-31T03:10:28.360Z,17.40
2019-01-31T03:13:24.514Z,21.20
2019-01-31T03:15:59.277Z,19.20
2019-01-31T03:18:47.627Z,15.40
2019-01-31T03:21:25.218Z,19.40
2019-01-31T03:24:15.473Z,21.50
2019-01-31T03:26:56.392Z,21.30
2019-01-31T03:29:30.951Z,18.10
2019-01-31T03:32:05.537Z,19.30
2019-01-31T03:34:54.297Z,22.50
2019-01-31T03:37:28.711Z,19.30
2019-01-31T03:40:09.479Z,26.40
2019-01-31T03:42:59.524Z,26.80
2019-01-31T03:45:40.392Z,28.70
2019-01-31T03:48:39.604Z,31.10
2019-01-31T03:51:14.022Z,29.70
2019-01-31T03:53:45.891Z,30.60
2019-01-31T03:56:37.133Z,23.90
2019-01-31T03:59:09.005Z,24.80
2019-01-31T04:01:59.000Z,22.40
2019-01-31T04:04:36.673Z,16.60
2019-01-31T04:07:05.426Z,19.30
2019-01-31T04:09:34.163Z,23.00
2019-01-31T04:12:02.945Z,20.80
2019-01-31T04:14:31.690Z,23.20
2019-01-31T04:17:00.498Z,21.60
2019-01-31T04:19:29.347Z,21.40
2019-01-31T04:21:58.189Z,21.20
2019-01-31T04:24:27.021Z,22.90
2019-01-31T04:26:55.815Z,12.10
2019-01-31T04:29:24.617Z,19.30
2019-01-31T04:31:53.461Z,21.20
2019-01-31T04:34:22.301Z,15.50
2019-01-31T04:36:51.135Z,14.30
2019-01-31T04:39:19.915Z,18.40
2019-01-31T04:41:48.707Z,19.30
2019-01-31T04:44:17.521Z,26.90
2019-01-31T04:46:46.474Z,29.20
2019-01-31T04:49:15.651Z,21.10
2019-01-31T04:51:44.447Z,20.80
2019-01-31T04:54:13.250Z,11.60
2019-01-31T04:56:42.060Z,10.70
2019-01-31T04:59:10.884Z,9.80
2019-01-31T05:01:39.649Z,11.20
2019-01-31T05:04:08.407Z,14.80
2019-01-31T05:06:37.149Z,17.20
2019-01-31T05:09:07.757Z,13.80
2019-01-31T05:11:36.820Z,17.50
2019-01-31T05:14:05.597Z,19.90
2019-01-31T05:16:34.370Z,19.30
2019-01-31T05:19:03.153Z,16.70
2019-01-31T05:21:31.999Z,13.40
2019-01-31T05:24:00.856Z,18.10
2019-01-31T05:26:29.626Z,17.60
2019-01-31T05:28:58.414Z,11.30
2019-01-31T05:31:27.237Z,17.10
2019-01-31T05:33:55.998Z,16.10
2019-01-31T05:36:24.775Z,17.70
2019-01-31T05:38:53.563Z,16.60
2019-01-31T05:41:22.344Z,18.60
2019-01-31T05:43:51.185Z,22.40
2019-01-31T05:46:19.952Z,17.20
2019-01-31T05:48:48.834Z,19.00
2019-01-31T05:51:17.687Z,24.80
2019-01-31T05:53:46.550Z,28.80
2019-01-31T05:56:15.388Z,34.40
2019-01-31T05:58:44.174Z,30.40
2019-01-31T06:01:12.965Z,31.60
2019-01-31T06:03:41.831Z,33.80
2019-01-31T06:06:10.663Z,29.60
2019-01-31T06:08:39.809Z,30.70
2019-01-31T06:11:08.611Z,37.80
2019-01-31T06:13:37.441Z,33.00
2019-01-31T06:16:06.869Z,31.70
2019-01-31T06:18:35.972Z,36.00
2019-01-31T06:21:04.759Z,32.10
2019-01-31T06:23:33.579Z,33.30
2019-01-31T06:26:02.387Z,36.20
2019-01-31T06:28:31.429Z,36.70
2019-01-31T06:31:00.236Z,38.60
2019-01-31T06:33:29.073Z,33.30
2019-01-31T06:35:58.248Z,39.40
2019-01-31T06:38:27.142Z,37.60
2019-01-31T06:40:56.008Z,32.20
2019-01-31T06:43:24.780Z,35.70
2019-01-31T06:45:56.222Z,38.30
2019-01-31T06:48:24.040Z,30.60
2019-01-31T06:50:52.863Z,35.50
2019-01-31T06:53:21.646Z,34.00
2019-01-31T06:55:50.460Z,37.10
2019-01-31T06:58:19.238Z,41.20
2019-01-31T07:00:48.021Z,43.20
2019-01-31T07:03:17.161Z,42.10
2019-01-31T07:05:45.930Z,41.20
2019-01-31T07:08:15.091Z,39.00
2019-01-31T07:10:43.981Z,44.90
2019-01-31T07:13:12.835Z,41.30
2019-01-31T07:15:41.730Z,39.10
2019-01-31T07:18:10.583Z,38.60
2019-01-31T07:20:39.765Z,40.30
2019-01-31T07:23:08.738Z,45.10
2019-01-31T07:25:37.625Z,40.60
2019-01-31T07:28:06.643Z,41.20
2019-01-31T07:30:35.393Z,38.60
2019-01-31T07:33:04.200Z,40.40
2019-01-31T07:35:33.072Z,33.90
2019-01-31T07:38:01.894Z,29.90
2019-01-31T07:40:30.657Z,26.50
2019-01-31T07:42:59.402Z,26.40
2019-01-31T07:45:30.229Z,27.60
2019-01-31T07:47:59.006Z,22.60
2019-01-31T07:50:27.950Z,25.90
2019-01-31T07:52:57.166Z,29.60
2019-01-31T07:55:25.946Z,21.90
2019-01-31T07:57:54.760Z,19.50
2019-01-31T08:00:25.897Z,14.90
2019-01-31T08:02:54.805Z,19.50
2019-01-31T08:05:24.714Z,28.50
2019-01-31T08:07:55.984Z,28.20
2019-01-31T08:10:36.226Z,22.20
2019-01-31T08:13:05.303Z,26.10
2019-01-31T08:15:34.179Z,29.40
2019-01-31T08:18:02.966Z,32.20
2019-01-31T08:20:31.768Z,28.90
2019-01-31T08:23:00.610Z,27.40
2019-01-31T08:25:29.602Z,28.90
2019-01-31T08:27:58.386Z,20.90
2019-01-31T08:30:33.469Z,19.60
2019-01-31T08:33:02.344Z,28.90
2019-01-31T08:35:31.167Z,25.30
2019-01-31T08:37:59.948Z,19.20
2019-01-31T08:40:28.746Z,27.90
2019-01-31T08:42:57.507Z,24.20
2019-01-31T08:45:26.313Z,11.80
2019-01-31T08:47:55.161Z,3.00
2019-01-31T08:50:29.179Z,1.00
2019-01-31T08:52:58.593Z,1.00
2019-01-31T08:55:27.685Z,1.00
2019-01-31T08:57:57.513Z,1.00
2019-01-31T09:00:31.062Z,1.00
2019-01-31T09:02:59.857Z,1.00
2019-01-31T09:05:28.589Z,1.00
2019-01-31T09:07:57.398Z,1.00
2019-01-31T09:10:31.476Z,1.00
2019-01-31T09:13:01.902Z,1.00
2019-01-31T09:15:30.716Z,1.00
2019-01-31T09:17:59.508Z,1.00
2019-01-31T09:20:43.768Z,1.00
2019-01-31T09:23:27.326Z,1.00
2019-01-31T09:26:20.632Z,1.00
2019-01-31T09:28:55.204Z,1.00
2019-01-31T09:31:38.691Z,1.00
2019-01-31T09:34:13.240Z,1.00
2019-01-31T09:36:53.831Z,1.00
2019-01-31T09:39:28.371Z,1.00
2019-01-31T09:42:05.745Z,1.00
2019-01-31T09:44:37.635Z,1.00
2019-01-31T09:47:12.320Z,1.00
2019-01-31T09:49:47.368Z,1.00
2019-01-31T09:52:54.478Z,1.00
2019-01-31T09:55:44.719Z,1.00
2019-01-31T09:58:19.221Z,1.00
2019-01-31T10:00:56.747Z,99.90
2019-01-31T10:03:37.464Z,1.00
2019-01-31T10:06:21.496Z,99.90
2019-01-31T10:09:03.739Z,99.90
2019-01-31T10:11:54.956Z,99.90
2019-01-31T10:14:35.318Z,1.00
2019-01-31T10:17:26.926Z,99.90
2019-01-31T10:20:01.237Z,1.00
2019-01-31T10:22:45.407Z,99.90
2019-01-31T10:25:20.071Z,1.00
2019-01-31T10:28:34.755Z,99.90
2019-01-31T10:31:18.312Z,99.90
2019-01-31T10:34:02.284Z,1.00
2019-01-31T11:22:46.129Z,99.90
2019-01-31T11:25:28.361Z,1.00
2019-01-31T11:28:17.977Z,1.00
2019-01-31T11:31:27.070Z,1.00
2019-01-31T11:54:18.886Z,99.90
2019-01-31T12:05:11.576Z,99.90
2019-01-31T12:23:01.122Z,99.90
2019-01-31T13:07:50.399Z,48.70
2019-01-31T13:16:42.845Z,1.00
2019-01-31T13:34:31.830Z,99.90
2019-01-31T14:10:17.758Z,99.70
2019-01-31T14:24:27.442Z,1.00
2019-01-31T14:27:07.990Z,1.00
2019-01-31T14:33:01.719Z,1.00
2019-01-31T14:38:55.749Z,1.00
2019-01-31T15:11:45.562Z,99.90
2019-01-31T15:29:36.010Z,1.00
2019-01-31T15:34:59.286Z,99.90
2019-01-31T15:49:13.042Z,1.00
2019-01-31T15:57:39.590Z,99.90
2019-01-31T16:03:20.450Z,1.00
2019-01-31T16:05:49.523Z,99.90
2019-01-31T16:08:37.655Z,99.90
2019-01-31T16:11:06.458Z,1.00
2019-01-31T16:13:35.314Z,1.00
2019-01-31T16:16:04.495Z,1.00
2019-01-31T16:18:33.293Z,1.00
2019-01-31T16:21:02.160Z,1.00
2019-01-31T16:26:38.617Z,1.00
2019-01-31T16:29:07.456Z,1.00
2019-01-31T16:37:12.234Z,1.00
2019-01-31T16:39:41.017Z,1.00
2019-01-31T16:42:09.786Z,1.00
2019-01-31T16:44:38.543Z,1.00
2019-01-31T16:47:07.471Z,1.00
2019-01-31T16:49:36.343Z,1.00
2019-01-31T16:52:06.222Z,1.00
2019-01-31T16:54:35.114Z,1.00
2019-01-31T16:57:03.950Z,1.00
2019-01-31T16:59:32.746Z,1.00
2019-01-31T17:02:01.873Z,1.00
2019-01-31T17:04:30.717Z,1.00
2019-01-31T17:06:59.532Z,1.00
2019-01-31T17:09:28.299Z,1.00
2019-01-31T17:11:57.028Z,1.00
2019-01-31T17:14:25.835Z,1.00
2019-01-31T17:16:54.607Z,1.00
2019-01-31T17:19:23.807Z,1.00
2019-01-31T17:21:52.661Z,1.00
2019-01-31T17:24:23.104Z,1.00
2019-01-31T17:26:51.952Z,1.00
2019-01-31T17:29:21.062Z,1.00
2019-01-31T17:31:49.798Z,1.00
2019-01-31T17:34:18.563Z,1.00
2019-01-31T17:36:47.746Z,1.00
2019-01-31T17:39:16.483Z,1.00
2019-01-31T17:41:45.338Z,1.00
2019-01-31T17:44:14.193Z,1.00
2019-01-31T17:46:42.998Z,4.00
2019-01-31T17:49:11.786Z,3.50
2019-01-31T17:51:40.567Z,7.10
2019-01-31T17:54:09.345Z,12.30
2019-01-31T17:56:38.391Z,11.40
2019-01-31T17:59:07.216Z,14.30
2019-01-31T18:01:35.986Z,15.70
2019-01-31T18:04:04.825Z,14.20
2019-01-31T18:06:33.958Z,16.40
2019-01-31T18:09:02.691Z,20.00
2019-01-31T18:11:31.450Z,26.00
2019-01-31T18:14:00.269Z,27.90
2019-01-31T18:16:29.122Z,30.00
2019-01-31T18:18:57.968Z,30.50
2019-01-31T18:21:26.751Z,33.30
2019-01-31T18:23:55.520Z,37.00
2019-01-31T18:26:24.270Z,43.30
2019-01-31T18:28:53.050Z,38.80
2019-01-31T18:31:21.880Z,38.20
2019-01-31T18:33:50.648Z,43.80
2019-01-31T18:36:19.427Z,46.40
2019-01-31T18:38:48.289Z,50.50
2019-01-31T18:41:17.038Z,50.50
2019-01-31T18:43:45.806Z,51.30
2019-01-31T18:46:14.636Z,53.50
2019-01-31T18:48:43.488Z,51.80
2019-01-31T18:51:12.302Z,55.40
2019-01-31T18:53:41.059Z,54.00
2019-01-31T18:56:09.857Z,57.90
2019-01-31T18:58:38.913Z,61.20
2019-01-31T19:01:08.434Z,61.70
2019-01-31T19:03:37.196Z,64.80
2019-01-31T19:06:06.123Z,62.70
2019-01-31T19:08:34.858Z,63.50
2019-01-31T19:11:03.666Z,65.20
2019-01-31T19:13:32.604Z,66.00
2019-01-31T19:16:05.326Z,66.20
2019-01-31T19:18:31.893Z,68.00
2019-01-31T19:21:00.777Z,67.70
2019-01-31T19:23:29.560Z,81.00
2019-01-31T19:25:58.295Z,75.30
2019-01-31T19:28:27.123Z,73.00
2019-01-31T19:30:55.953Z,75.80
2019-01-31T19:33:24.693Z,74.10
2019-01-31T19:35:53.465Z,77.50
2019-01-31T19:38:22.288Z,75.90
2019-01-31T19:40:51.313Z,77.80
2019-01-31T19:43:20.140Z,74.20
2019-01-31T19:45:49.249Z,67.50
2019-01-31T19:48:18.191Z,68.60
2019-01-31T19:50:47.111Z,66.10
2019-01-31T19:53:16.049Z,63.70
2019-01-31T19:55:45.139Z,65.00
2019-01-31T19:58:13.985Z,65.00
2019-01-31T20:00:42.763Z,65.10
2019-01-31T20:03:11.697Z,65.80
2019-01-31T20:05:40.545Z,65.30
2019-01-31T20:08:10.001Z,63.30
2019-01-31T20:10:58.225Z,67.50
2019-01-31T20:13:26.983Z,68.80
2019-01-31T20:15:55.872Z,65.70
2019-01-31T20:18:24.750Z,64.10
2019-01-31T20:20:53.551Z,65.30
2019-01-31T20:23:22.364Z,67.60
2019-01-31T20:25:51.541Z,65.30
2019-01-31T20:28:20.384Z,64.90
2019-01-31T20:30:49.121Z,61.60
2019-01-31T20:33:17.901Z,65.00
2019-01-31T20:35:46.673Z,62.10
2019-01-31T20:38:15.424Z,59.90
2019-01-31T20:40:44.159Z,62.00
2019-01-31T20:43:12.949Z,65.00
2019-01-31T20:45:41.742Z,62.20
2019-01-31T20:48:10.589Z,63.40
2019-01-31T20:50:40.064Z,63.70
2019-01-31T20:53:09.196Z,64.80
2019-01-31T20:55:38.134Z,62.50
2019-01-31T20:58:07.054Z,63.60
2019-01-31T21:00:38.022Z,64.60
2019-01-31T21:03:08.124Z,64.70
2019-01-31T21:05:37.705Z,68.80
2019-01-31T21:08:07.592Z,70.70
2019-01-31T21:10:36.439Z,70.40
2019-01-31T21:13:06.261Z,77.70
2019-01-31T21:15:35.236Z,80.60
2019-01-31T21:18:06.147Z,82.50
2019-01-31T21:20:35.167Z,84.20
2019-01-31T21:23:04.449Z,83.70
2019-01-31T21:25:34.409Z,88.90
2019-01-31T21:28:03.788Z,89.20
2019-01-31T21:30:35.577Z,90.60
2019-01-31T21:33:05.060Z,88.70
2019-01-31T21:35:34.061Z,90.90
2019-01-31T21:38:02.981Z,88.90
2019-01-31T21:40:33.825Z,87.70
2019-01-31T21:43:02.610Z,86.50
2019-01-31T21:45:31.624Z,87.60
2019-01-31T21:48:00.406Z,91.50
2019-01-31T21:50:33.493Z,91.00
2019-01-31T21:53:02.274Z,91.20
2019-01-31T21:55:31.043Z,93.50
2019-01-31T21:57:59.884Z,93.90
2019-01-31T22:00:33.243Z,95.40
2019-01-31T22:03:02.367Z,97.00
2019-01-31T22:05:31.558Z,97.50
2019-01-31T22:08:00.342Z,97.50
2019-01-31T22:10:29.238Z,97.40
2019-01-31T22:12:58.064Z,98.60
2019-01-31T22:15:29.784Z,98.40
2019-01-31T22:18:00.393Z,98.20
2019-01-31T22:20:29.109Z,99.50
2019-01-31T22:22:57.892Z,99.80
2019-01-31T22:25:26.748Z,99.90
2019-01-31T22:27:55.715Z,99.90
2019-01-31T22:30:32.440Z,99.90
2019-01-31T22:33:01.224Z,99.90
2019-01-31T22:35:30.362Z,99.90
2019-01-31T22:37:59.134Z,99.90
2019-01-31T22:40:27.926Z,99.90
2019-01-31T22:42:56.693Z,99.90
2019-01-31T22:45:25.500Z,99.90
2019-01-31T22:47:54.663Z,99.90
2019-01-31T22:50:24.244Z,99.90
2019-01-31T22:52:53.097Z,99.90
2019-01-31T22:55:23.983Z,99.90
2019-01-31T22:57:52.906Z,99.90
2019-01-31T23:00:53.827Z,99.90
2019-01-31T23:03:22.592Z,99.90
2019-01-31T23:05:52.606Z,99.90
2019-01-31T23:08:21.418Z,99.90
2019-01-31T23:10:50.168Z,99.90
2019-01-31T23:13:18.928Z,99.90
2019-01-31T23:15:47.710Z,99.90
2019-01-31T23:18:16.508Z,99.90
2019-01-31T23:20:45.275Z,99.90
2019-01-31T23:23:14.045Z,99.90
2019-01-31T23:25:42.808Z,99.90
2019-01-31T23:28:11.608Z,99.90
2019-01-31T23:30:40.432Z,99.90
2019-01-31T23:33:09.201Z,99.90
2019-01-31T23:35:38.001Z,99.90
2019-01-31T23:38:06.765Z,99.90
2019-01-31T23:40:35.558Z,99.90
2019-01-31T23:43:04.811Z,99.90
2019-01-31T23:45:33.560Z,99.90
2019-01-31T23:48:02.326Z,99.90
2019-01-31T23:50:31.097Z,99.90
2019-01-31T23:52:59.958Z,99.90
2019-01-31T23:55:28.796Z,99.90
2019-01-31T23:57:57.547Z,99.90
